Aviation Digital Data Service (ADDS)

Output produced by METARs form (1354 UTC 22 April 2021)
found at http://www.aviationweather.gov/metar/data/
 
KSTC 221120Z 2212/2312 25006KT P6SM SKC 
     FM221600 25012G19KT P6SM SKC 
     FM230000 22009KT P6SM SKC 
     FM230900 20006KT P6SM -SHRA OVC050 
     FM231100 17006KT P6SM -SHRA OVC025